Barbara Foss — WYL4318 — position and weather

sailwx.info

Track history (hours):
 
Tides and Currents Weather Stations Pressure Air Temp Water Temp Dewpoint Dewpoint Depression Visibility Wind Speed Wind Dir Waves Ship Positions

Barbara Foss

Owner: Foss International, Inc, SEATTLE, WA. More information available from US FCC via Universal Licensing System and Coast Guard Vessel Documentation Center.

Last reported at 2014-Dec-17 00:00 UTC. Time now 2014-Dec-21 15:12 UTC.
Position N 59°42' W 142°30'.

Length 39 m; draft 5.5 m.

Type: Tow > 200 m length. MMSI: 366932130.

Wind from 190 at 23 knots

Waves 1.0 meters (3 feet), 3 second period

Barometer 993.4 mb
Air temperature 6.5 ° C
Visibility: greater than 10.8 NM

Date/timePositionNaut miles runAvg speedWind from/ knotsBaromVisibWave heightAir tempDewpointWater temp
2014-Dec-17 00:00N 59°42' W 142°30'37 6.1 190 / 23993.410.8 1.0 6.5
2014-Dec-16 18:00N 59°36' W 141°18'140 7.8 170 / 40991.7 2.2 2.0 6.0
2014-Dec-16 00:00N 58°24' W 137°24'54 9.0 140 / 35991.510.8 6.5
2014-Dec-15 18:00N 58°18' W 135°42'4 7.2 060 / 16999.9 1.1 6.1
2014-Dec-15 17:24N 58°18' W 135°50'11 3.6
2014-Dec-15 14:16N 58°15' W 135°30'5 2.6
2014-Dec-15 12:31N 58°17' W 135°38'3 2.4
2014-Dec-15 11:25N 58°18' W 135°42'2 2.2
2014-Dec-15 10:33N 58°19' W 135°46'2 1.6
2014-Dec-15 09:31N 58°18' W 135°43'4 3.9
2014-Dec-15 08:33N 58°17' W 135°36'0 0.0
2014-Dec-15 00:24N 58°16' W 135°36'2 2.6
2014-Dec-14 23:31N 58°17' W 135°40'2 2.6
2014-Dec-14 22:33N 58°19' W 135°44'1 1.1
2014-Dec-14 21:33N 58°19' W 135°46'5 4.3
2014-Dec-14 20:26N 58°17' W 135°38'6 1.1
2014-Dec-14 15:18N 58°16' W 135°27'5 0.5
2014-Dec-14 05:33N 58°16' W 135°37'1 0.1
2014-Dec-13 19:14N 58°17' W 135°38'1 0.8
2014-Dec-13 18:19N 58°16' W 135°40'2 0.1
2014-Dec-13 02:30N 58°16' W 135°36'5 0.4
2014-Dec-12 15:24N 58°15' W 135°27'8 2.9
2014-Dec-12 12:34N 58°18' W 135°42'2 2.0
2014-Dec-12 11:33N 58°19' W 135°46'4 3.0
2014-Dec-12 10:22N 58°17' W 135°40'3 3.0
2014-Dec-12 09:28N 58°16' W 135°35'146 5.3
2014-Dec-11 06:00N 56°00' W 134°00'   060 / 25970.5 0.5 1.0 6.7
Track history (hours):
 
Tides and Currents Weather Stations Pressure Air Temp Water Temp Dewpoint Dewpoint Depression Visibility Wind Speed Wind Dir Waves Ship Positions

Barbara Foss

Owner: Foss International, Inc, SEATTLE, WA. More information available from US FCC via Universal Licensing System and Coast Guard Vessel Documentation Center.

Last reported at 2014-Dec-17 00:00 UTC. Time now 2014-Dec-21 15:12 UTC.
Position N 59°42' W 142°30'.

Length 39 m; draft 5.5 m.

Type: Tow > 200 m length. MMSI: 366932130.

Wind from 190 at 23 knots

Waves 1.0 meters (3 feet), 3 second period

Barometer 993.4 mb
Air temperature 6.5 ° C
Visibility: greater than 10.8 NM

Date/timePositionNaut miles runAvg speedWind from/ knotsBaromVisibWave heightAir tempDewpointWater temp
2014-Dec-17 00:00N 59°42' W 142°30'37 6.1 190 / 23993.410.8 1.0 6.5
2014-Dec-16 18:00N 59°36' W 141°18'140 7.8 170 / 40991.7 2.2 2.0 6.0
2014-Dec-16 00:00N 58°24' W 137°24'54 9.0 140 / 35991.510.8 6.5
2014-Dec-15 18:00N 58°18' W 135°42'4 7.2 060 / 16999.9 1.1 6.1
2014-Dec-15 17:24N 58°18' W 135°50'11 3.6
2014-Dec-15 14:16N 58°15' W 135°30'5 2.6
2014-Dec-15 12:31N 58°17' W 135°38'3 2.4
2014-Dec-15 11:25N 58°18' W 135°42'2 2.2
2014-Dec-15 10:33N 58°19' W 135°46'2 1.6
2014-Dec-15 09:31N 58°18' W 135°43'4 3.9
2014-Dec-15 08:33N 58°17' W 135°36'0 0.0
2014-Dec-15 00:24N 58°16' W 135°36'2 2.6
2014-Dec-14 23:31N 58°17' W 135°40'2 2.6
2014-Dec-14 22:33N 58°19' W 135°44'1 1.1
2014-Dec-14 21:33N 58°19' W 135°46'5 4.3
2014-Dec-14 20:26N 58°17' W 135°38'6 1.1
2014-Dec-14 15:18N 58°16' W 135°27'5 0.5
2014-Dec-14 05:33N 58°16' W 135°37'1 0.1
2014-Dec-13 19:14N 58°17' W 135°38'1 0.8
2014-Dec-13 18:19N 58°16' W 135°40'2 0.1
2014-Dec-13 02:30N 58°16' W 135°36'5 0.4
2014-Dec-12 15:24N 58°15' W 135°27'8 2.9
2014-Dec-12 12:34N 58°18' W 135°42'2 2.0
2014-Dec-12 11:33N 58°19' W 135°46'4 3.0
2014-Dec-12 10:22N 58°17' W 135°40'3 3.0
2014-Dec-12 09:28N 58°16' W 135°35'146 5.3
2014-Dec-11 06:00N 56°00' W 134°00'   060 / 25970.5 0.5 1.0 6.7

Dump ship's entire track history